Time;durP1;ratioP1;P1;durP2;ratioP2;P2;SDS_P1;SDS_P2;PMS_P1;PMS_P2;Temp;Humidity;BMP_temperature;BMP_pressure;BME280_temperature;BME280_humidity;BME280_pressure;Samples;Min_cycle;Max_cycle;Signal;HPM_P1;HPM_P2
2023/04/19 00:01:01;;;;;;;;;;;7.40;99.90;;;;;;5059489;28;19974;-64
2023/04/19 00:03:26;;;;;;;;;;;7.40;99.90;;;;;;5051388;28;20372;-62
2023/04/19 00:05:57;;;;;;;;;;;7.40;99.90;;;;;;5057999;28;20015;-64
2023/04/19 00:08:23;;;;;;;;;;;7.40;99.90;;;;;;5061560;28;20482;-64
2023/04/19 00:10:48;;;;;;;;;;;7.50;99.90;;;;;;5055330;28;19921;-64
2023/04/19 00:13:14;;;;;;;;;;;7.50;99.90;;;;;;5058150;28;20278;-64
2023/04/19 00:15:40;;;;;;;;;;;7.50;99.90;;;;;;5060273;28;20296;-64
2023/04/19 00:18:06;;;;;;;;;;;7.50;99.90;;;;;;5052505;28;20015;-64
2023/04/19 00:20:31;;;;;;;;;;;7.50;99.90;;;;;;5045880;28;19916;-62
2023/04/19 00:22:58;;;;;;;;;;;7.50;99.90;;;;;;5043419;28;19923;-66
2023/04/19 00:25:23;;;;;;;;;;;7.50;99.90;;;;;;5045478;28;19946;-66
2023/04/19 00:27:49;;;;;;;;;;;7.50;99.90;;;;;;5043600;28;19916;-65
2023/04/19 00:30:15;;;;;;;;;;;7.60;99.90;;;;;;5043711;28;20577;-67
2023/04/19 00:32:40;;;;;;;;;;;7.60;99.90;;;;;;5044669;28;19955;-70
2023/04/19 00:35:06;;;;;;;;;;;7.60;99.90;;;;;;5047036;28;19917;-64
2023/04/19 00:37:31;;;;;;;;;;;7.60;99.90;;;;;;5047831;28;19923;-67
2023/04/19 00:39:57;;;;;;;;;;;7.60;99.90;;;;;;5046979;28;19920;-68
2023/04/19 00:42:22;;;;;;;;;;;7.60;99.90;;;;;;5044056;28;19920;-67
2023/04/19 00:44:48;;;;;;;;;;;7.60;99.90;;;;;;5044663;28;20297;-65
2023/04/19 00:47:14;;;;;;;;;;;7.60;99.90;;;;;;5044281;28;20399;-63
2023/04/19 00:49:39;;;;;;;;;;;7.60;99.90;;;;;;5042930;28;20296;-68
2023/04/19 00:52:06;;;;;;;;;;;7.70;99.90;;;;;;5043349;28;20011;-64
2023/04/19 00:54:32;;;;;;;;;;;7.70;99.90;;;;;;5043065;28;20424;-66
2023/04/19 00:56:58;;;;;;;;;;;7.70;99.90;;;;;;5045830;28;20012;-66
2023/04/19 00:59:23;;;;;;;;;;;7.60;99.90;;;;;;5045774;28;19917;-68
2023/04/19 01:01:49;;;;;;;;;;;7.60;99.90;;;;;;5042933;28;19944;-67
2023/04/19 01:04:15;;;;;;;;;;;7.60;99.90;;;;;;5046815;28;19927;-66
2023/04/19 01:06:41;;;;;;;;;;;7.60;99.90;;;;;;5045762;28;19921;-65
2023/04/19 01:09:06;;;;;;;;;;;7.60;99.90;;;;;;5046505;28;19928;-65
2023/04/19 01:11:32;;;;;;;;;;;7.60;99.90;;;;;;5044210;28;20365;-67
2023/04/19 01:13:58;;;;;;;;;;;7.60;99.90;;;;;;5043806;28;20328;-63
2023/04/19 01:16:27;;;;;;;;;;;7.60;99.90;;;;;;5040412;28;19924;-63
2023/04/19 01:18:52;;;;;;;;;;;7.60;99.90;;;;;;5043442;28;20019;-63
2023/04/19 01:21:18;;;;;;;;;;;7.60;99.90;;;;;;5043733;28;20054;-64
2023/04/19 01:23:43;;;;;;;;;;;7.60;99.90;;;;;;5041512;28;19927;-65
2023/04/19 01:26:09;;;;;;;;;;;7.70;99.90;;;;;;5044096;28;20325;-62
2023/04/19 01:28:34;;;;;;;;;;;7.70;99.90;;;;;;5046208;28;19917;-64
2023/04/19 01:31:00;;;;;;;;;;;7.70;99.90;;;;;;5043021;28;20581;-63
2023/04/19 01:33:26;;;;;;;;;;;7.60;99.90;;;;;;5045334;28;19927;-64
2023/04/19 01:35:51;;;;;;;;;;;7.60;99.90;;;;;;5045668;28;19917;-63
2023/04/19 01:38:17;;;;;;;;;;;7.60;99.90;;;;;;5046030;28;19967;-64
2023/04/19 01:40:42;;;;;;;;;;;7.60;99.90;;;;;;5044885;28;20276;-64
2023/04/19 01:43:11;;;;;;;;;;;7.60;99.90;;;;;;5042064;28;19975;-63
2023/04/19 01:45:37;;;;;;;;;;;7.60;99.90;;;;;;5042075;28;19920;-64
2023/04/19 01:48:03;;;;;;;;;;;7.60;99.90;;;;;;5043683;28;19990;-64
2023/04/19 01:50:29;;;;;;;;;;;7.60;99.90;;;;;;5044275;28;20054;-64
2023/04/19 01:52:54;;;;;;;;;;;7.60;99.90;;;;;;5044754;28;20358;-64
2023/04/19 01:55:20;;;;;;;;;;;7.60;99.90;;;;;;5043074;28;19995;-62
2023/04/19 01:57:46;;;;;;;;;;;7.60;99.90;;;;;;5044010;28;19916;-66
2023/04/19 02:00:11;;;;;;;;;;;7.60;99.90;;;;;;5044911;28;19924;-62
2023/04/19 02:02:37;;;;;;;;;;;7.60;99.90;;;;;;5040272;28;19916;-65
2023/04/19 02:05:04;;;;;;;;;;;7.60;99.90;;;;;;5044594;28;20742;-64
2023/04/19 02:07:29;;;;;;;;;;;7.60;99.90;;;;;;5039853;28;19925;-65
2023/04/19 02:09:55;;;;;;;;;;;7.60;99.90;;;;;;5044788;28;19920;-63
2023/04/19 02:12:21;;;;;;;;;;;7.60;99.90;;;;;;5042631;28;20018;-65
2023/04/19 02:14:46;;;;;;;;;;;7.60;99.90;;;;;;5045070;28;19971;-63
2023/04/19 02:17:12;;;;;;;;;;;7.60;99.90;;;;;;5045101;28;19923;-64
2023/04/19 02:19:37;;;;;;;;;;;7.60;99.90;;;;;;5044589;28;19921;-62
2023/04/19 02:22:03;;;;;;;;;;;7.50;99.90;;;;;;5047675;28;19942;-62
2023/04/19 02:24:28;;;;;;;;;;;7.50;99.90;;;;;;5033612;28;19979;-63
2023/04/19 02:26:54;;;;;;;;;;;7.50;99.90;;;;;;5044802;28;20384;-66
2023/04/19 02:29:19;;;;;;;;;;;7.60;99.90;;;;;;5044929;28;19928;-64
2023/04/19 02:31:45;;;;;;;;;;;7.50;99.90;;;;;;5041407;28;20708;-63
2023/04/19 02:34:11;;;;;;;;;;;7.50;99.90;;;;;;5043687;28;19917;-65
2023/04/19 02:36:36;;;;;;;;;;;7.40;99.90;;;;;;5044675;28;20047;-65
2023/04/19 02:39:04;;;;;;;;;;;7.50;99.90;;;;;;5044970;28;20012;-63
2023/04/19 02:41:30;;;;;;;;;;;7.50;99.90;;;;;;5041905;28;19917;-65
2023/04/19 02:43:55;;;;;;;;;;;7.50;99.90;;;;;;5042902;28;19931;-67
2023/04/19 02:46:21;;;;;;;;;;;7.50;99.90;;;;;;5044467;28;19921;-65
2023/04/19 02:48:46;;;;;;;;;;;7.50;99.90;;;;;;5043845;28;20388;-65
2023/04/19 02:51:15;;;;;;;;;;;7.50;99.90;;;;;;5043560;28;19920;-64
2023/04/19 02:53:41;;;;;;;;;;;7.50;99.90;;;;;;5043713;28;20596;-65
2023/04/19 02:56:07;;;;;;;;;;;7.50;99.90;;;;;;5044414;28;19974;-65
2023/04/19 02:58:32;;;;;;;;;;;7.50;99.90;;;;;;5048404;28;20496;-65
2023/04/19 03:00:58;;;;;;;;;;;7.50;99.90;;;;;;5040891;28;19921;-64
2023/04/19 03:03:23;;;;;;;;;;;7.40;99.90;;;;;;5042576;28;20617;-66
2023/04/19 03:05:49;;;;;;;;;;;7.40;99.90;;;;;;5044258;28;19925;-65
2023/04/19 03:08:14;;;;;;;;;;;7.40;99.90;;;;;;5044006;28;19968;-65
2023/04/19 03:10:40;;;;;;;;;;;7.50;99.90;;;;;;5043487;28;19916;-65
2023/04/19 03:13:05;;;;;;;;;;;7.40;99.90;;;;;;5044257;28;20536;-66
2023/04/19 03:15:31;;;;;;;;;;;7.40;99.90;;;;;;5040885;28;20011;-64
2023/04/19 03:17:56;;;;;;;;;;;7.30;99.90;;;;;;5043894;28;19974;-64
2023/04/19 03:20:22;;;;;;;;;;;7.30;99.90;;;;;;5043169;28;20584;-66
2023/04/19 03:22:48;;;;;;;;;;;7.30;99.90;;;;;;5036639;28;19920;-65
2023/04/19 03:25:13;;;;;;;;;;;7.30;99.90;;;;;;5041138;28;20300;-65
2023/04/19 03:27:39;;;;;;;;;;;7.30;99.90;;;;;;5041748;28;20296;-65
2023/04/19 03:30:05;;;;;;;;;;;7.30;99.90;;;;;;5041443;28;19970;-65
2023/04/19 03:32:31;;;;;;;;;;;7.30;99.90;;;;;;5036564;28;19921;-65
2023/04/19 03:34:56;;;;;;;;;;;7.30;99.90;;;;;;5044456;28;20678;-65
2023/04/19 03:37:22;;;;;;;;;;;7.20;99.90;;;;;;5042915;28;19925;-65
2023/04/19 03:39:47;;;;;;;;;;;7.20;99.90;;;;;;5044438;28;19940;-64
2023/04/19 03:42:13;;;;;;;;;;;7.20;99.90;;;;;;5038961;28;19921;-65
2023/04/19 03:44:38;;;;;;;;;;;7.20;99.90;;;;;;5041379;28;20339;-66
2023/04/19 03:47:04;;;;;;;;;;;7.20;99.90;;;;;;5042943;28;19925;-65
2023/04/19 03:49:30;;;;;;;;;;;7.20;99.90;;;;;;5044069;28;19924;-65
2023/04/19 03:51:55;;;;;;;;;;;7.20;99.90;;;;;;5041367;28;20011;-66
2023/04/19 03:54:21;;;;;;;;;;;7.10;99.90;;;;;;5040992;28;20321;-65
2023/04/19 03:56:46;;;;;;;;;;;7.20;99.90;;;;;;5044783;28;19941;-64
2023/04/19 03:59:12;;;;;;;;;;;7.10;99.90;;;;;;5044657;28;19917;-64
2023/04/19 04:01:40;;;;;;;;;;;7.10;99.90;;;;;;5043770;28;20264;-65
2023/04/19 04:04:10;;;;;;;;;;;7.00;99.90;;;;;;5047667;28;19921;-65
2023/04/19 04:06:36;;;;;;;;;;;6.90;99.90;;;;;;5046598;28;19920;-65
2023/04/19 04:09:01;;;;;;;;;;;6.90;99.90;;;;;;5047013;28;19920;-65
2023/04/19 04:11:27;;;;;;;;;;;6.90;99.90;;;;;;5044728;28;19931;-64
2023/04/19 04:13:53;;;;;;;;;;;6.90;99.90;;;;;;5040097;28;19924;-64
2023/04/19 04:16:18;;;;;;;;;;;6.90;99.90;;;;;;5043794;28;19927;-65
2023/04/19 04:18:44;;;;;;;;;;;6.90;99.90;;;;;;5042888;28;19920;-65
2023/04/19 04:21:10;;;;;;;;;;;6.90;99.90;;;;;;5045294;28;20845;-64
2023/04/19 04:23:36;;;;;;;;;;;6.80;99.90;;;;;;5045769;28;20335;-62
2023/04/19 04:26:03;;;;;;;;;;;6.80;99.90;;;;;;5044214;28;20036;-64
2023/04/19 04:28:29;;;;;;;;;;;6.80;99.90;;;;;;5046355;28;19924;-63
2023/04/19 04:30:56;;;;;;;;;;;6.80;99.90;;;;;;5044321;28;20649;-63
2023/04/19 04:33:23;;;;;;;;;;;6.80;99.90;;;;;;5046619;28;19916;-65
2023/04/19 04:35:48;;;;;;;;;;;6.80;99.90;;;;;;5041508;28;20023;-64
2023/04/19 04:38:14;;;;;;;;;;;6.70;99.90;;;;;;5047609;28;20011;-65
2023/04/19 04:40:40;;;;;;;;;;;6.70;99.90;;;;;;5046088;28;19917;-64
2023/04/19 04:43:06;;;;;;;;;;;6.70;99.90;;;;;;5043787;28;19916;-62
2023/04/19 04:45:32;;;;;;;;;;;6.60;99.90;;;;;;5044659;28;19964;-63
2023/04/19 04:47:58;;;;;;;;;;;6.60;99.90;;;;;;5047211;28;20423;-64
2023/04/19 04:50:23;;;;;;;;;;;6.50;99.90;;;;;;5045818;28;19932;-65
2023/04/19 04:52:49;;;;;;;;;;;6.50;99.90;;;;;;5041490;28;19920;-64
2023/04/19 04:55:15;;;;;;;;;;;6.40;99.90;;;;;;5046520;28;20343;-64
2023/04/19 04:57:40;;;;;;;;;;;6.30;99.90;;;;;;5047360;28;20003;-65
2023/04/19 05:00:08;;;;;;;;;;;6.30;99.90;;;;;;5047951;28;20339;-64
2023/04/19 05:02:33;;;;;;;;;;;6.30;99.90;;;;;;5040502;28;19920;-64
2023/04/19 05:04:59;;;;;;;;;;;6.30;99.90;;;;;;5046906;28;20319;-65
2023/04/19 05:07:24;;;;;;;;;;;6.20;99.90;;;;;;5046967;28;19928;-63
2023/04/19 05:09:50;;;;;;;;;;;6.20;99.90;;;;;;5047291;28;20381;-65
2023/04/19 05:12:15;;;;;;;;;;;6.20;99.90;;;;;;5044522;28;20487;-65
2023/04/19 05:14:41;;;;;;;;;;;6.30;99.90;;;;;;5046947;28;20296;-64
2023/04/19 05:17:06;;;;;;;;;;;6.20;99.90;;;;;;5046950;28;20321;-64
2023/04/19 05:19:32;;;;;;;;;;;6.40;99.90;;;;;;5045356;28;20365;-67
2023/04/19 05:21:57;;;;;;;;;;;6.60;99.90;;;;;;5046049;28;20352;-64
2023/04/19 05:24:23;;;;;;;;;;;6.80;99.90;;;;;;5045565;28;19970;-65
2023/04/19 05:26:48;;;;;;;;;;;7.00;99.90;;;;;;5047604;28;20643;-65
2023/04/19 05:29:14;;;;;;;;;;;7.10;99.90;;;;;;5046786;28;20003;-64
2023/04/19 05:31:39;;;;;;;;;;;7.00;99.90;;;;;;5043249;28;19916;-65
2023/04/19 05:34:05;;;;;;;;;;;7.10;99.90;;;;;;5041218;28;19927;-64
2023/04/19 05:36:31;;;;;;;;;;;7.10;99.90;;;;;;5046225;28;19927;-65
2023/04/19 05:38:56;;;;;;;;;;;7.20;99.90;;;;;;5046209;28;19962;-63
2023/04/19 05:41:22;;;;;;;;;;;7.20;99.90;;;;;;5043901;28;19928;-64
2023/04/19 05:43:48;;;;;;;;;;;7.10;99.90;;;;;;5046244;28;20471;-67
2023/04/19 05:46:13;;;;;;;;;;;7.10;99.90;;;;;;5045548;28;20047;-63
2023/04/19 05:48:39;;;;;;;;;;;7.30;99.90;;;;;;5040806;28;19974;-65
2023/04/19 05:51:05;;;;;;;;;;;7.30;99.90;;;;;;5044161;28;19917;-68
2023/04/19 05:53:30;;;;;;;;;;;7.50;99.90;;;;;;5045438;28;20637;-66
2023/04/19 05:55:56;;;;;;;;;;;7.50;99.90;;;;;;5045935;28;19917;-65
2023/04/19 05:58:22;;;;;;;;;;;7.20;99.90;;;;;;5047200;28;20003;-66
2023/04/19 06:00:48;;;;;;;;;;;7.30;99.90;;;;;;5042870;28;19928;-68
2023/04/19 06:03:13;;;;;;;;;;;7.20;99.90;;;;;;5045425;28;19921;-67
2023/04/19 06:05:39;;;;;;;;;;;7.70;99.90;;;;;;5044346;28;19921;-68
2023/04/19 06:08:05;;;;;;;;;;;7.80;99.90;;;;;;5045496;28;20136;-65
2023/04/19 06:10:31;;;;;;;;;;;7.90;99.90;;;;;;5044948;28;19917;-65
2023/04/19 06:12:57;;;;;;;;;;;7.70;99.90;;;;;;5043523;28;20285;-68
2023/04/19 06:15:24;;;;;;;;;;;7.70;99.90;;;;;;5041534;28;19978;-66
2023/04/19 06:17:50;;;;;;;;;;;8.00;99.90;;;;;;5044993;28;19935;-69
2023/04/19 06:20:15;;;;;;;;;;;8.40;99.90;;;;;;5041416;28;20201;-63
2023/04/19 06:22:43;;;;;;;;;;;9.00;99.90;;;;;;5039317;28;19924;-64
2023/04/19 06:25:09;;;;;;;;;;;9.30;99.90;;;;;;5042006;28;20324;-65
2023/04/19 06:27:35;;;;;;;;;;;8.90;99.90;;;;;;5041622;28;19920;-65
2023/04/19 06:30:00;;;;;;;;;;;8.80;99.90;;;;;;5044326;28;19921;-63
2023/04/19 06:32:26;;;;;;;;;;;8.30;99.90;;;;;;5041232;28;20000;-64
2023/04/19 06:34:51;;;;;;;;;;;7.70;99.90;;;;;;5044726;28;19974;-63
2023/04/19 06:37:17;;;;;;;;;;;7.40;99.90;;;;;;5045178;28;19967;-64
2023/04/19 06:39:42;;;;;;;;;;;7.50;99.90;;;;;;5045333;28;19920;-65
2023/04/19 06:42:08;;;;;;;;;;;7.90;99.90;;;;;;5043450;28;19920;-63
2023/04/19 06:44:33;;;;;;;;;;;8.80;99.90;;;;;;5041286;28;20027;-64
2023/04/19 06:46:59;;;;;;;;;;;9.10;99.90;;;;;;5042962;28;19931;-64
2023/04/19 06:49:25;;;;;;;;;;;8.80;99.90;;;;;;5045320;28;19924;-64
2023/04/19 06:51:50;;;;;;;;;;;8.50;99.90;;;;;;5041399;28;19923;-64
2023/04/19 06:54:16;;;;;;;;;;;8.40;99.90;;;;;;5043634;28;19943;-64
2023/04/19 06:56:44;;;;;;;;;;;8.40;99.90;;;;;;5043399;28;19916;-64
2023/04/19 06:59:13;;;;;;;;;;;8.50;99.90;;;;;;5044369;28;19920;-64
2023/04/19 07:01:40;;;;;;;;;;;8.30;99.90;;;;;;5043028;28;20113;-64
2023/04/19 07:04:06;;;;;;;;;;;8.10;99.90;;;;;;5044335;28;20441;-65
2023/04/19 07:06:32;;;;;;;;;;;8.20;99.90;;;;;;5043384;28;19924;-64
2023/04/19 07:08:57;;;;;;;;;;;7.90;99.90;;;;;;5044542;28;19982;-65
2023/04/19 07:11:23;;;;;;;;;;;7.90;99.90;;;;;;5041373;28;19921;-64
2023/04/19 07:13:48;;;;;;;;;;;7.80;99.90;;;;;;5039659;28;19964;-66
2023/04/19 07:16:14;;;;;;;;;;;7.90;99.90;;;;;;5040212;28;19921;-67
2023/04/19 07:18:40;;;;;;;;;;;8.10;99.90;;;;;;5041852;28;20043;-66
2023/04/19 07:21:05;;;;;;;;;;;8.40;99.90;;;;;;5042734;28;20011;-67
2023/04/19 07:23:31;;;;;;;;;;;8.50;99.90;;;;;;5039385;28;19920;-64
2023/04/19 07:25:56;;;;;;;;;;;9.00;99.90;;;;;;5040940;28;19955;-66
2023/04/19 07:28:22;;;;;;;;;;;9.30;99.50;;;;;;5039572;28;19990;-67
2023/04/19 07:30:47;;;;;;;;;;;9.40;98.40;;;;;;5040702;28;19916;-66
2023/04/19 07:33:13;;;;;;;;;;;9.50;98.80;;;;;;5046767;28;20372;-66
2023/04/19 07:35:39;;;;;;;;;;;9.50;99.90;;;;;;5044890;28;20397;-71
2023/04/19 07:38:04;;;;;;;;;;;9.60;97.60;;;;;;5047142;28;20722;-69
2023/04/19 07:40:30;;;;;;;;;;;9.80;98.20;;;;;;5038644;28;19920;-68
2023/04/19 07:42:55;;;;;;;;;;;9.80;97.50;;;;;;5045421;28;19970;-68
2023/04/19 07:45:21;;;;;;;;;;;9.80;97.50;;;;;;5044669;28;20364;-66
2023/04/19 07:47:47;;;;;;;;;;;10.40;98.10;;;;;;5046444;28;20239;-66
2023/04/19 07:50:12;;;;;;;;;;;10.80;97.30;;;;;;5046932;28;20273;-63
2023/04/19 07:52:38;;;;;;;;;;;10.90;95.20;;;;;;5046046;28;19939;-66
2023/04/19 07:55:03;;;;;;;;;;;10.80;97.40;;;;;;5047438;28;20023;-63
2023/04/19 07:57:30;;;;;;;;;;;11.30;95.70;;;;;;5043783;28;19927;-64
2023/04/19 07:59:58;;;;;;;;;;;12.40;94.20;;;;;;5041674;28;19920;-65
2023/04/19 08:02:26;;;;;;;;;;;12.70;90.50;;;;;;5044262;28;20011;-64
2023/04/19 08:04:52;;;;;;;;;;;12.50;91.10;;;;;;5047409;28;20284;-65
2023/04/19 08:07:18;;;;;;;;;;;13.40;91.00;;;;;;5047293;28;19924;-65
2023/04/19 08:09:43;;;;;;;;;;;14.10;85.10;;;;;;5047478;28;19924;-63
2023/04/19 08:12:09;;;;;;;;;;;14.50;83.00;;;;;;5045760;28;19928;-65
2023/04/19 08:14:34;;;;;;;;;;;15.30;82.20;;;;;;5045770;28;19928;-65
2023/04/19 08:17:00;;;;;;;;;;;15.50;81.60;;;;;;5047538;28;19927;-65
2023/04/19 08:19:26;;;;;;;;;;;14.80;79.70;;;;;;5047138;28;20646;-65
2023/04/19 08:21:51;;;;;;;;;;;15.30;79.40;;;;;;5049896;28;19920;-64
2023/04/19 08:24:17;;;;;;;;;;;15.40;79.10;;;;;;5044508;28;20503;-64
2023/04/19 08:26:43;;;;;;;;;;;14.50;77.60;;;;;;5047688;28;20074;-65
2023/04/19 08:29:08;;;;;;;;;;;13.60;80.70;;;;;;5044255;28;19924;-65
2023/04/19 08:31:34;;;;;;;;;;;13.30;82.50;;;;;;5040722;28;19981;-67
2023/04/19 08:33:59;;;;;;;;;;;13.80;80.60;;;;;;5046790;28;20409;-62
2023/04/19 08:36:26;;;;;;;;;;;13.50;79.70;;;;;;5046184;28;19923;-66
2023/04/19 08:38:52;;;;;;;;;;;13.90;80.60;;;;;;5045615;28;19916;-66
2023/04/19 08:41:17;;;;;;;;;;;13.20;79.70;;;;;;5043601;28;19982;-66
2023/04/19 08:43:44;;;;;;;;;;;12.20;87.60;;;;;;5041400;28;20443;-66
2023/04/19 08:46:11;;;;;;;;;;;11.90;89.90;;;;;;5044252;28;20024;-65
2023/04/19 08:48:37;;;;;;;;;;;11.40;87.60;;;;;;5045135;28;19924;-67
2023/04/19 08:51:03;;;;;;;;;;;11.30;87.70;;;;;;5044479;28;19976;-63
2023/04/19 08:53:29;;;;;;;;;;;11.00;86.80;;;;;;5045596;28;19971;-65
2023/04/19 08:55:57;;;;;;;;;;;10.70;91.80;;;;;;5045859;28;19917;-65
2023/04/19 08:58:28;;;;;;;;;;;10.60;90.60;;;;;;5046332;28;20348;-66
2023/04/19 09:00:55;;;;;;;;;;;10.40;90.50;;;;;;5044909;28;20735;-65
2023/04/19 09:03:20;;;;;;;;;;;10.30;91.30;;;;;;5042515;28;20011;-65
2023/04/19 09:05:46;;;;;;;;;;;10.30;88.60;;;;;;5041712;28;20360;-65
2023/04/19 09:08:23;;;;;;;;;;;9.90;84.90;;;;;;5038872;28;19925;-63
2023/04/19 09:11:07;;;;;;;;;;;9.60;85.00;;;;;;5036165;28;19920;-64
2023/04/19 09:13:35;;;;;;;;;;;9.40;87.40;;;;;;5037381;28;19955;-65
2023/04/19 09:16:01;;;;;;;;;;;9.40;91.00;;;;;;5042595;28;20013;-65
2023/04/19 09:18:27;;;;;;;;;;;9.40;86.20;;;;;;5041820;28;19978;-64
2023/04/19 09:20:59;;;;;;;;;;;9.10;87.30;;;;;;5042800;28;19921;-64
2023/04/19 09:23:26;;;;;;;;;;;9.30;89.10;;;;;;5035924;28;19921;-63
2023/04/19 09:25:51;;;;;;;;;;;9.40;88.20;;;;;;5040663;28;19921;-64
2023/04/19 09:28:17;;;;;;;;;;;9.40;89.60;;;;;;5043765;28;19924;-65
2023/04/19 09:30:43;;;;;;;;;;;9.60;87.30;;;;;;5041904;28;19923;-64
2023/04/19 09:33:08;;;;;;;;;;;9.70;88.90;;;;;;5043560;28;20421;-64
2023/04/19 09:35:41;;;;;;;;;;;9.80;84.60;;;;;;5045257;28;19920;-65
2023/04/19 09:38:07;;;;;;;;;;;9.60;84.10;;;;;;5043973;28;20383;-62
2023/04/19 09:40:32;;;;;;;;;;;9.70;82.50;;;;;;5043801;28;19958;-65
2023/04/19 09:42:58;;;;;;;;;;;9.70;84.30;;;;;;5044718;28;19981;-65
2023/04/19 09:45:25;;;;;;;;;;;9.60;85.30;;;;;;5039535;28;19932;-63
2023/04/19 09:48:04;;;;;;;;;;;9.60;84.70;;;;;;5045402;28;19932;-63
2023/04/19 09:50:29;;;;;;;;;;;9.70;82.80;;;;;;5043566;28;19916;-64
2023/04/19 09:52:56;;;;;;;;;;;9.80;85.50;;;;;;5045369;28;19942;-63
2023/04/19 09:55:22;;;;;;;;;;;9.70;82.70;;;;;;5045129;28;19921;-63
2023/04/19 09:57:48;;;;;;;;;;;9.70;81.90;;;;;;5045102;28;20416;-64
2023/04/19 10:00:14;;;;;;;;;;;9.40;79.90;;;;;;5044731;28;20038;-64
2023/04/19 10:02:40;;;;;;;;;;;9.50;80.70;;;;;;5044373;28;19920;-64
2023/04/19 10:05:07;;;;;;;;;;;9.60;74.20;;;;;;5045868;28;19917;-61
2023/04/19 10:07:32;;;;;;;;;;;9.60;77.70;;;;;;5044025;28;19921;-64
2023/04/19 10:09:58;;;;;;;;;;;9.90;77.70;;;;;;5044923;28;19920;-65
2023/04/19 10:12:25;;;;;;;;;;;9.90;74.10;;;;;;5043347;28;19917;-64
2023/04/19 10:14:51;;;;;;;;;;;9.90;78.10;;;;;;5041103;28;19921;-63
2023/04/19 10:17:17;;;;;;;;;;;10.10;79.70;;;;;;5044794;28;19920;-65
2023/04/19 10:19:44;;;;;;;;;;;9.90;76.60;;;;;;5043772;28;19924;-63
2023/04/19 10:22:10;;;;;;;;;;;9.80;75.40;;;;;;5043974;28;19917;-64
2023/04/19 10:24:36;;;;;;;;;;;9.70;78.20;;;;;;5045363;28;19912;-66
2023/04/19 10:27:02;;;;;;;;;;;9.90;74.90;;;;;;5041936;28;19927;-64
2023/04/19 10:30:06;;;;;;;;;;;9.90;74.90;;;;;;5045003;28;20434;-62
2023/04/19 10:32:42;;;;;;;;;;;9.90;73.20;;;;;;5009751;28;19917;-64
2023/04/19 10:35:09;;;;;;;;;;;9.90;73.50;;;;;;5052076;28;20257;-62
2023/04/19 10:37:38;;;;;;;;;;;10.10;78.70;;;;;;5057288;28;19927;-65
2023/04/19 10:40:06;;;;;;;;;;;10.30;78.80;;;;;;5061060;28;19927;-67
2023/04/19 10:42:50;;;;;;;;;;;10.30;77.50;;;;;;5059814;28;20026;-64
2023/04/19 10:45:31;;;;;;;;;;;10.30;77.90;;;;;;5058748;28;19924;-67
2023/04/19 10:47:57;;;;;;;;;;;10.30;77.30;;;;;;5057564;28;19952;-66
2023/04/19 10:50:23;;;;;;;;;;;10.10;71.40;;;;;;5062239;28;19978;-63
2023/04/19 10:52:48;;;;;;;;;;;9.80;72.60;;;;;;5060645;28;20741;-64
2023/04/19 10:55:16;;;;;;;;;;;9.90;77.50;;;;;;5061085;28;19920;-65
2023/04/19 10:58:02;;;;;;;;;;;9.90;80.60;;;;;;5100512;28;20596;-65
2023/04/19 11:00:30;;;;;;;;;;;9.70;80.00;;;;;;5063532;28;20021;-63
2023/04/19 11:02:56;;;;;;;;;;;9.70;80.20;;;;;;5066536;28;19921;-65
2023/04/19 11:05:22;;;;;;;;;;;9.80;80.80;;;;;;5061578;28;19916;-61
2023/04/19 11:07:47;;;;;;;;;;;9.60;80.30;;;;;;5062228;28;19924;-62
2023/04/19 11:10:26;;;;;;;;;;;9.50;81.70;;;;;;5062165;28;20003;-64
2023/04/19 11:12:51;;;;;;;;;;;9.70;80.50;;;;;;5056639;28;19916;-63
2023/04/19 11:15:20;;;;;;;;;;;10.00;83.80;;;;;;5063806;28;19982;-64
2023/04/19 11:17:48;;;;;;;;;;;10.00;82.00;;;;;;5063489;28;19924;-64
2023/04/19 11:20:14;;;;;;;;;;;10.10;82.30;;;;;;5058494;28;20056;-63
2023/04/19 11:22:46;;;;;;;;;;;10.00;80.70;;;;;;5059332;28;19917;-63
2023/04/19 11:25:18;;;;;;;;;;;10.10;85.20;;;;;;5062460;28;20029;-72
2023/04/19 11:27:45;;;;;;;;;;;10.10;83.70;;;;;;5067907;28;20015;-64
2023/04/19 11:30:12;;;;;;;;;;;10.20;82.60;;;;;;5071899;28;20014;-64
2023/04/19 11:32:43;;;;;;;;;;;10.30;80.90;;;;;;5070302;28;19920;-64
2023/04/19 11:35:09;;;;;;;;;;;10.30;81.00;;;;;;5066067;28;20398;-65
2023/04/19 11:37:35;;;;;;;;;;;10.20;79.10;;;;;;5082524;28;19920;-64
2023/04/19 11:40:01;;;;;;;;;;;10.20;78.00;;;;;;5115879;27;19920;-63
2023/04/19 11:42:26;;;;;;;;;;;10.30;75.60;;;;;;5074787;28;19951;-63
2023/04/19 11:44:53;;;;;;;;;;;10.40;75.20;;;;;;5059215;28;20473;-65
2023/04/19 11:47:19;;;;;;;;;;;10.30;73.50;;;;;;5062774;28;19920;-65
2023/04/19 11:49:45;;;;;;;;;;;10.10;76.20;;;;;;5063723;28;19920;-63
2023/04/19 11:52:10;;;;;;;;;;;10.10;78.30;;;;;;5063179;28;19980;-65
2023/04/19 11:54:36;;;;;;;;;;;10.30;76.00;;;;;;5062247;28;19999;-66
2023/04/19 11:57:02;;;;;;;;;;;10.20;79.20;;;;;;5063694;28;19971;-68
2023/04/19 11:59:28;;;;;;;;;;;10.40;79.40;;;;;;5056410;28;19928;-64
2023/04/19 12:01:54;;;;;;;;;;;10.30;73.80;;;;;;5065880;28;19931;-65
2023/04/19 12:04:20;;;;;;;;;;;10.10;72.20;;;;;;5071156;28;19920;-65
2023/04/19 12:06:54;;;;;;;;;;;10.30;76.50;;;;;;5062346;28;20555;-66
2023/04/19 12:09:21;;;;;;;;;;;10.40;77.40;;;;;;5063061;28;19921;-64
2023/04/19 12:11:50;;;;;;;;;;;10.50;75.90;;;;;;5061456;28;20285;-64
2023/04/19 12:14:21;;;;;;;;;;;10.60;78.20;;;;;;5066188;28;20411;-65
2023/04/19 12:17:02;;;;;;;;;;;10.70;77.30;;;;;;5067385;28;19920;-63
2023/04/19 12:19:33;;;;;;;;;;;10.80;75.60;;;;;;5067465;28;19962;-64
2023/04/19 12:22:06;;;;;;;;;;;10.70;75.80;;;;;;5066478;28;19920;-65
2023/04/19 12:24:32;;;;;;;;;;;10.80;76.60;;;;;;5066100;28;20354;-66
2023/04/19 12:26:57;;;;;;;;;;;10.70;75.30;;;;;;5067011;28;20019;-63
2023/04/19 12:29:23;;;;;;;;;;;10.50;76.50;;;;;;5067621;28;20461;-65
2023/04/19 12:31:48;;;;;;;;;;;10.50;74.40;;;;;;5069235;28;19920;-64
2023/04/19 12:34:14;;;;;;;;;;;10.60;78.10;;;;;;5070903;28;20384;-65
2023/04/19 12:36:39;;;;;;;;;;;10.60;76.10;;;;;;5070469;28;19916;-65
2023/04/19 12:39:06;;;;;;;;;;;10.70;77.10;;;;;;5066486;28;19916;-64
2023/04/19 12:41:31;;;;;;;;;;;10.50;70.50;;;;;;5066839;28;19955;-63
2023/04/19 12:43:57;;;;;;;;;;;10.50;71.20;;;;;;5066436;28;19916;-66
2023/04/19 12:46:22;;;;;;;;;;;10.60;72.90;;;;;;5065662;28;19924;-64
2023/04/19 12:48:48;;;;;;;;;;;10.60;71.80;;;;;;5066621;28;19916;-65
2023/04/19 12:51:13;;;;;;;;;;;10.50;75.20;;;;;;5064384;28;19926;-66
2023/04/19 12:53:40;;;;;;;;;;;10.40;75.20;;;;;;5062293;28;19942;-64
2023/04/19 12:56:06;;;;;;;;;;;10.60;74.10;;;;;;5063622;28;19920;-64
2023/04/19 12:58:32;;;;;;;;;;;10.70;74.90;;;;;;5077740;28;19915;-65
2023/04/19 13:00:57;;;;;;;;;;;10.70;74.00;;;;;;5081007;28;19920;-66
2023/04/19 13:03:23;;;;;;;;;;;10.70;74.60;;;;;;5075893;28;19921;-64
2023/04/19 13:05:48;;;;;;;;;;;10.60;71.50;;;;;;5078363;28;20707;-65
2023/04/19 13:08:14;;;;;;;;;;;10.50;70.90;;;;;;5061252;28;19921;-64
2023/04/19 13:10:39;;;;;;;;;;;10.70;73.20;;;;;;5056661;28;20383;-64
2023/04/19 13:13:05;;;;;;;;;;;10.80;72.50;;;;;;5063967;28;19920;-64
2023/04/19 13:15:30;;;;;;;;;;;10.80;70.60;;;;;;5066579;28;20602;-65
2023/04/19 13:17:56;;;;;;;;;;;10.80;70.90;;;;;;5065785;28;20294;-65
2023/04/19 13:20:21;;;;;;;;;;;10.90;72.40;;;;;;5056963;28;20761;-64
2023/04/19 13:22:47;;;;;;;;;;;11.00;73.20;;;;;;5062331;28;20300;-64
2023/04/19 13:25:13;;;;;;;;;;;10.90;71.30;;;;;;5064307;28;20063;-64
2023/04/19 13:27:38;;;;;;;;;;;11.00;71.90;;;;;;5064731;28;20411;-64
2023/04/19 13:30:04;;;;;;;;;;;11.10;74.00;;;;;;5066665;28;19977;-63
2023/04/19 13:32:30;;;;;;;;;;;11.20;72.00;;;;;;5065244;28;19923;-64
2023/04/19 13:34:55;;;;;;;;;;;11.30;72.70;;;;;;5067891;28;19920;-65
2023/04/19 13:37:21;;;;;;;;;;;11.40;74.60;;;;;;5069693;28;19960;-66
2023/04/19 13:39:49;;;;;;;;;;;11.40;75.20;;;;;;5065231;28;19916;-64
2023/04/19 13:42:17;;;;;;;;;;;11.30;72.80;;;;;;5063064;28;19927;-65
2023/04/19 13:44:43;;;;;;;;;;;11.20;73.00;;;;;;5064438;28;19923;-65
2023/04/19 13:47:11;;;;;;;;;;;11.00;70.70;;;;;;5064635;28;19920;-65
2023/04/19 13:49:39;;;;;;;;;;;11.00;69.90;;;;;;5066380;28;19986;-64
2023/04/19 13:52:08;;;;;;;;;;;10.80;69.00;;;;;;5062655;28;19938;-64
2023/04/19 13:54:34;;;;;;;;;;;10.80;67.00;;;;;;5063953;28;20005;-64
2023/04/19 13:57:00;;;;;;;;;;;10.90;68.20;;;;;;5098428;28;19966;-62
2023/04/19 13:59:25;;;;;;;;;;;10.90;67.50;;;;;;5058054;28;19920;-63
2023/04/19 14:01:53;;;;;;;;;;;10.90;72.10;;;;;;5064164;28;19990;-63
2023/04/19 14:04:19;;;;;;;;;;;11.10;69.60;;;;;;5074034;28;19917;-66
2023/04/19 14:06:44;;;;;;;;;;;11.00;66.80;;;;;;5064677;28;19985;-63
2023/04/19 14:09:10;;;;;;;;;;;10.70;67.10;;;;;;5064124;28;20373;-64
2023/04/19 14:11:37;;;;;;;;;;;10.70;66.70;;;;;;5063167;28;19978;-63
2023/04/19 14:14:02;;;;;;;;;;;10.50;67.60;;;;;;5064377;28;19916;-63
2023/04/19 14:16:28;;;;;;;;;;;10.30;72.50;;;;;;5064757;28;19916;-65
2023/04/19 14:18:53;;;;;;;;;;;10.40;69.70;;;;;;5060838;28;20468;-65
2023/04/19 14:21:22;;;;;;;;;;;10.60;70.30;;;;;;5064608;28;19922;-64